createdAt,value
2023-10-07T00:01:26.556Z,15.56
2023-10-07T00:03:54.583Z,15.57
2023-10-07T00:06:29.291Z,15.57
2023-10-07T00:08:59.427Z,15.55
2023-10-07T00:11:28.565Z,15.55
2023-10-07T00:13:56.496Z,15.55
2023-10-07T00:16:25.274Z,15.57
2023-10-07T00:18:52.586Z,15.55
2023-10-07T00:21:28.181Z,15.52
2023-10-07T00:23:55.452Z,15.53
2023-10-07T00:26:22.059Z,15.50
2023-10-07T00:29:00.974Z,15.51
2023-10-07T00:31:29.326Z,15.55
2023-10-07T00:34:07.035Z,15.54
2023-10-07T00:36:33.681Z,15.53
2023-10-07T00:39:01.287Z,15.51
2023-10-07T00:41:37.713Z,15.51
2023-10-07T00:44:19.182Z,15.51
2023-10-07T00:46:56.774Z,15.50
2023-10-07T00:49:24.332Z,15.51
2023-10-07T00:51:53.500Z,15.51
2023-10-07T00:54:26.593Z,15.50
2023-10-07T00:57:08.085Z,15.51
2023-10-07T00:59:36.193Z,15.50
2023-10-07T01:02:07.871Z,15.50
2023-10-07T01:04:41.924Z,15.49
2023-10-07T01:07:14.114Z,15.47
2023-10-07T01:09:41.149Z,15.44
2023-10-07T01:12:09.738Z,15.43
2023-10-07T01:14:36.811Z,15.42
2023-10-07T01:17:04.595Z,15.42
2023-10-07T01:19:37.130Z,15.40
2023-10-07T01:22:11.228Z,15.38
2023-10-07T01:24:38.221Z,15.41
2023-10-07T01:27:19.857Z,15.41
2023-10-07T01:30:01.236Z,15.42
2023-10-07T01:32:33.783Z,15.42
2023-10-07T01:35:07.737Z,15.42
2023-10-07T01:37:43.531Z,15.42
2023-10-07T01:40:17.733Z,15.41
2023-10-07T01:42:45.130Z,15.41
2023-10-07T01:45:21.120Z,15.40
2023-10-07T01:47:49.759Z,15.41
2023-10-07T01:50:19.801Z,15.43
2023-10-07T01:52:49.839Z,15.45
2023-10-07T01:55:17.679Z,15.45
2023-10-07T01:57:46.143Z,15.45
2023-10-07T02:00:13.944Z,15.47
2023-10-07T02:02:50.244Z,15.49
2023-10-07T02:05:22.389Z,15.50
2023-10-07T02:07:50.330Z,15.53
2023-10-07T02:10:24.650Z,15.54
2023-10-07T02:12:54.310Z,15.54
2023-10-07T02:15:21.899Z,15.55
2023-10-07T02:17:49.162Z,15.56
2023-10-07T02:20:39.686Z,15.56
2023-10-07T02:23:14.475Z,15.59
2023-10-07T02:25:41.875Z,15.59
2023-10-07T02:28:09.558Z,15.59
2023-10-07T02:30:40.354Z,15.61
2023-10-07T02:33:09.518Z,15.58
2023-10-07T02:35:38.155Z,15.61
2023-10-07T02:38:05.076Z,15.60
2023-10-07T02:40:37.196Z,15.62
2023-10-07T02:43:08.605Z,15.62
2023-10-07T02:45:44.221Z,15.62
2023-10-07T02:48:12.415Z,15.62
2023-10-07T02:50:41.898Z,15.63
2023-10-07T02:53:15.556Z,15.65
2023-10-07T02:55:56.226Z,15.64
2023-10-07T02:58:41.477Z,15.66
2023-10-07T03:01:15.289Z,15.65
2023-10-07T03:03:49.391Z,15.65
2023-10-07T03:06:18.839Z,15.65
2023-10-07T03:08:47.066Z,15.66
2023-10-07T03:11:22.243Z,15.67
2023-10-07T03:13:51.574Z,15.66
2023-10-07T03:16:25.621Z,15.65
2023-10-07T03:19:02.506Z,15.67
2023-10-07T03:21:45.112Z,15.69
2023-10-07T03:24:13.695Z,15.68
2023-10-07T03:26:42.695Z,15.69
2023-10-07T03:29:09.671Z,15.67
2023-10-07T03:31:48.862Z,15.67
2023-10-07T03:34:15.741Z,15.67
2023-10-07T03:36:46.348Z,15.68
2023-10-07T03:39:16.212Z,15.68
2023-10-07T03:41:42.821Z,15.69
2023-10-07T03:44:09.914Z,15.69
2023-10-07T03:46:37.050Z,15.70
2023-10-07T03:49:07.830Z,15.71
2023-10-07T03:51:36.391Z,15.70
2023-10-07T03:54:05.251Z,15.72
2023-10-07T03:56:32.622Z,15.74
2023-10-07T03:59:01.230Z,15.75
2023-10-07T04:01:28.474Z,15.75
2023-10-07T04:04:00.560Z,15.74
2023-10-07T04:06:35.725Z,15.74
2023-10-07T04:09:08.781Z,15.74
2023-10-07T04:11:37.994Z,15.75
2023-10-07T04:14:28.602Z,15.75
2023-10-07T04:17:01.336Z,15.76
2023-10-07T04:19:28.445Z,15.74
2023-10-07T04:21:56.154Z,15.74
2023-10-07T04:24:30.101Z,15.75
2023-10-07T04:27:04.037Z,15.74
2023-10-07T04:29:32.509Z,15.75
2023-10-07T04:32:07.132Z,15.75
2023-10-07T04:34:37.731Z,15.73
2023-10-07T04:37:04.344Z,15.74
2023-10-07T04:39:39.049Z,15.72
2023-10-07T04:42:07.339Z,15.72
2023-10-07T04:44:40.739Z,15.74
2023-10-07T04:47:23.858Z,15.74
2023-10-07T04:49:56.945Z,15.73
2023-10-07T04:52:28.460Z,15.74
2023-10-07T04:54:57.774Z,15.73
2023-10-07T04:57:45.357Z,15.75
2023-10-07T05:00:32.100Z,15.76
2023-10-07T05:03:09.315Z,15.77
2023-10-07T05:05:36.076Z,15.79
2023-10-07T05:08:18.780Z,15.79
2023-10-07T05:10:53.629Z,15.79
2023-10-07T05:13:20.976Z,15.78
2023-10-07T05:15:47.698Z,15.77
2023-10-07T05:18:18.376Z,15.80
2023-10-07T05:20:48.076Z,15.78
2023-10-07T05:23:16.251Z,15.77
2023-10-07T05:25:51.163Z,15.77
2023-10-07T05:28:28.397Z,15.76
2023-10-07T05:30:55.320Z,15.76
2023-10-07T05:33:29.693Z,15.77
2023-10-07T05:36:00.345Z,15.75
2023-10-07T05:38:26.966Z,15.75
2023-10-07T05:40:53.528Z,15.73
2023-10-07T05:43:20.121Z,15.74
2023-10-07T05:45:46.722Z,15.76
2023-10-07T05:48:13.389Z,15.79
2023-10-07T05:50:40.984Z,15.78
2023-10-07T05:53:07.668Z,15.79
2023-10-07T05:55:35.537Z,15.80
2023-10-07T05:58:03.390Z,15.81
2023-10-07T06:00:37.390Z,15.82
2023-10-07T06:03:07.958Z,15.83
2023-10-07T06:05:36.787Z,15.85
2023-10-07T06:08:05.930Z,15.86
2023-10-07T06:10:34.816Z,15.88
2023-10-07T06:13:09.378Z,15.91
2023-10-07T06:15:38.905Z,15.92
2023-10-07T06:18:06.624Z,15.94
2023-10-07T06:20:40.214Z,15.97
2023-10-07T06:23:15.178Z,15.99
2023-10-07T06:25:44.632Z,15.99
2023-10-07T06:28:11.459Z,16.01
2023-10-07T06:30:39.363Z,16.04
2023-10-07T06:33:06.311Z,16.08
2023-10-07T06:35:34.977Z,16.11
2023-10-07T06:38:04.165Z,16.15
2023-10-07T06:40:30.825Z,16.18
2023-10-07T06:43:00.091Z,16.20
2023-10-07T06:45:36.749Z,16.24
2023-10-07T06:48:08.880Z,16.27
2023-10-07T06:50:36.380Z,16.30
2023-10-07T06:53:04.049Z,16.30
2023-10-07T06:55:37.934Z,16.32
2023-10-07T06:58:05.883Z,16.34
2023-10-07T07:00:48.415Z,16.34
2023-10-07T07:03:19.304Z,16.37
2023-10-07T07:05:46.863Z,16.37
2023-10-07T07:08:14.283Z,16.40
2023-10-07T07:10:41.854Z,16.42
2023-10-07T07:13:16.564Z,16.44
2023-10-07T07:15:43.268Z,16.47
2023-10-07T07:18:16.185Z,16.49
2023-10-07T07:20:51.341Z,16.51
2023-10-07T07:23:18.295Z,16.54
2023-10-07T07:25:50.725Z,16.57
2023-10-07T07:28:18.491Z,16.57
2023-10-07T07:30:46.387Z,16.59
2023-10-07T07:33:13.660Z,16.62
2023-10-07T07:35:42.594Z,16.62
2023-10-07T07:38:33.667Z,16.62
2023-10-07T07:41:11.139Z,16.61
2023-10-07T07:43:39.938Z,16.62
2023-10-07T07:46:19.674Z,16.65
2023-10-07T07:48:46.940Z,16.71
2023-10-07T07:51:18.021Z,16.73
2023-10-07T07:53:45.642Z,16.74
2023-10-07T07:56:18.312Z,16.76
2023-10-07T07:58:48.497Z,16.79
2023-10-07T08:01:19.305Z,16.83
2023-10-07T08:03:46.196Z,16.84
2023-10-07T08:06:13.510Z,16.88
2023-10-07T08:08:40.493Z,16.90
2023-10-07T08:11:08.664Z,16.94
2023-10-07T08:13:35.470Z,17.00
2023-10-07T08:16:06.755Z,17.04
2023-10-07T08:18:33.489Z,17.07
2023-10-07T08:21:15.207Z,17.08
2023-10-07T08:23:42.890Z,17.10
2023-10-07T08:26:10.996Z,17.15
2023-10-07T08:28:42.686Z,17.17
2023-10-07T08:31:20.931Z,17.18
2023-10-07T08:34:05.698Z,17.22
2023-10-07T08:36:32.224Z,17.27
2023-10-07T08:39:00.328Z,17.31
2023-10-07T08:41:28.309Z,17.35
2023-10-07T08:44:05.918Z,17.40
2023-10-07T08:46:40.604Z,17.40
2023-10-07T08:49:15.930Z,17.40
2023-10-07T08:51:44.174Z,17.43
2023-10-07T08:54:18.700Z,17.46
2023-10-07T08:56:56.062Z,17.50
2023-10-07T08:59:24.033Z,17.52
2023-10-07T09:01:58.801Z,17.52
2023-10-07T09:04:26.875Z,17.57
2023-10-07T09:06:53.543Z,17.60
2023-10-07T09:09:38.985Z,17.61
2023-10-07T09:12:16.724Z,17.65
2023-10-07T09:14:53.651Z,17.69
2023-10-07T09:17:22.593Z,17.71
2023-10-07T09:19:50.083Z,17.75
2023-10-07T09:22:19.450Z,17.76
2023-10-07T09:24:46.096Z,17.80
2023-10-07T09:27:14.466Z,17.84
2023-10-07T09:29:45.533Z,17.89
2023-10-07T09:32:23.622Z,17.95
2023-10-07T09:34:56.379Z,17.99
2023-10-07T09:37:24.957Z,18.01
2023-10-07T09:40:17.884Z,18.01
2023-10-07T09:42:58.340Z,18.05
2023-10-07T09:45:35.227Z,18.10
2023-10-07T09:48:06.686Z,18.17
2023-10-07T09:50:35.610Z,18.25
2023-10-07T09:53:19.522Z,18.35
2023-10-07T09:56:01.613Z,18.44
2023-10-07T09:58:42.980Z,18.53
2023-10-07T10:01:38.180Z,18.57
2023-10-07T10:04:14.191Z,18.60
2023-10-07T10:06:52.137Z,18.63
2023-10-07T10:09:25.657Z,18.67
2023-10-07T10:12:14.601Z,18.70
2023-10-07T10:14:58.036Z,18.74
2023-10-07T10:17:40.546Z,18.78
2023-10-07T10:20:13.770Z,18.79
2023-10-07T10:22:51.648Z,18.81
2023-10-07T10:25:37.968Z,18.85
2023-10-07T10:28:07.790Z,18.91
2023-10-07T10:30:46.655Z,18.98
2023-10-07T10:33:21.148Z,19.00
2023-10-07T10:35:53.366Z,18.99
2023-10-07T10:38:20.649Z,18.92
2023-10-07T10:40:48.050Z,18.89
2023-10-07T10:43:25.242Z,18.88
2023-10-07T10:46:06.161Z,18.95
2023-10-07T10:48:35.608Z,19.02
2023-10-07T10:51:08.595Z,19.04
2023-10-07T10:53:42.034Z,19.12
2023-10-07T10:56:09.576Z,19.15
2023-10-07T10:58:38.137Z,19.14
2023-10-07T11:01:06.785Z,19.12
2023-10-07T11:03:35.003Z,19.16
2023-10-07T11:06:07.358Z,19.21
2023-10-07T11:08:34.706Z,19.22
2023-10-07T11:11:01.868Z,19.20
2023-10-07T11:13:30.991Z,19.25
2023-10-07T11:16:06.313Z,19.26
2023-10-07T11:18:34.983Z,19.31
2023-10-07T11:21:03.516Z,19.34
2023-10-07T11:23:30.090Z,19.36
2023-10-07T11:25:57.103Z,19.42
2023-10-07T11:28:23.961Z,19.50
2023-10-07T11:30:52.599Z,19.60
2023-10-07T11:33:20.916Z,19.70
2023-10-07T11:36:01.171Z,19.78
2023-10-07T11:38:27.961Z,19.81
2023-10-07T11:40:54.820Z,19.81
2023-10-07T11:43:21.758Z,19.72
2023-10-07T11:45:49.182Z,19.65
2023-10-07T11:48:15.828Z,19.64
2023-10-07T11:50:42.595Z,19.61
2023-10-07T11:53:09.212Z,19.61
2023-10-07T11:55:36.994Z,19.61
2023-10-07T11:58:05.141Z,19.61
2023-10-07T12:00:35.744Z,19.66
2023-10-07T12:03:08.180Z,19.75
2023-10-07T12:05:39.509Z,19.81
2023-10-07T12:08:06.334Z,19.84
2023-10-07T12:10:36.247Z,19.87
2023-10-07T12:13:04.343Z,19.85
2023-10-07T12:15:31.751Z,19.87
2023-10-07T12:17:58.464Z,19.88
2023-10-07T12:20:25.227Z,19.92
2023-10-07T12:22:51.967Z,19.89
2023-10-07T12:25:19.825Z,19.87
2023-10-07T12:27:48.514Z,19.84
2023-10-07T12:30:22.132Z,19.82
2023-10-07T12:32:49.747Z,19.83
2023-10-07T12:35:16.831Z,19.88
2023-10-07T12:37:48.081Z,19.91
2023-10-07T12:40:15.785Z,19.94
2023-10-07T12:42:42.876Z,19.97
2023-10-07T12:45:11.838Z,19.96
2023-10-07T12:47:42.109Z,19.96
2023-10-07T12:50:24.351Z,19.99
2023-10-07T12:52:52.669Z,20.02
2023-10-07T12:55:19.798Z,20.03
2023-10-07T12:57:46.682Z,20.06
2023-10-07T13:00:21.195Z,20.04
2023-10-07T13:02:49.172Z,19.50
2023-10-07T13:05:19.477Z,18.72
2023-10-07T13:07:48.452Z,18.32
2023-10-07T13:10:15.701Z,18.22
2023-10-07T13:12:42.771Z,18.15
2023-10-07T13:15:16.729Z,18.16
2023-10-07T13:17:46.748Z,18.16
2023-10-07T13:20:21.466Z,18.17
2023-10-07T13:22:49.987Z,18.17
2023-10-07T13:25:18.253Z,18.18
2023-10-07T13:27:45.114Z,18.21
2023-10-07T13:30:13.314Z,18.18
2023-10-07T13:32:41.541Z,18.12
2023-10-07T13:35:10.493Z,18.11
2023-10-07T13:37:40.444Z,18.11
2023-10-07T13:40:08.980Z,18.11
2023-10-07T13:42:36.734Z,18.13
2023-10-07T13:45:09.511Z,18.14
2023-10-07T13:47:37.806Z,18.18
2023-10-07T13:50:12.216Z,18.18
2023-10-07T13:52:47.122Z,18.20
2023-10-07T13:55:23.268Z,18.21
2023-10-07T13:57:57.350Z,18.24
2023-10-07T14:00:37.932Z,18.24
2023-10-07T14:03:07.132Z,18.22
2023-10-07T14:05:42.294Z,18.21
2023-10-07T14:08:17.349Z,18.23
2023-10-07T14:10:45.286Z,18.26
2023-10-07T14:13:13.126Z,18.27
2023-10-07T14:15:40.849Z,18.30
2023-10-07T14:18:07.765Z,18.31
2023-10-07T14:20:34.619Z,18.34
2023-10-07T14:23:01.292Z,18.39
2023-10-07T14:25:28.282Z,18.42
2023-10-07T14:27:54.910Z,18.43
2023-10-07T14:30:23.713Z,18.42
2023-10-07T14:32:51.376Z,18.44
2023-10-07T14:35:18.475Z,18.46
2023-10-07T14:37:46.640Z,18.46
2023-10-07T14:40:19.073Z,18.48
2023-10-07T14:42:47.258Z,18.50
2023-10-07T14:45:13.889Z,18.49
2023-10-07T14:47:40.649Z,18.50
2023-10-07T14:50:07.843Z,18.50
2023-10-07T14:52:35.370Z,18.50
2023-10-07T14:55:07.046Z,18.50
2023-10-07T14:57:34.122Z,18.51
2023-10-07T15:00:00.848Z,18.51
2023-10-07T15:02:28.430Z,18.52
2023-10-07T15:04:55.173Z,18.52
2023-10-07T15:07:21.935Z,18.55
2023-10-07T15:09:49.880Z,18.58
2023-10-07T15:12:17.300Z,18.59
2023-10-07T15:14:44.349Z,18.61
2023-10-07T15:17:10.892Z,18.64
2023-10-07T15:19:37.826Z,18.65
2023-10-07T15:22:07.054Z,18.66
2023-10-07T15:24:35.449Z,18.71
2023-10-07T15:27:02.882Z,18.77
2023-10-07T15:29:31.818Z,18.81
2023-10-07T15:31:59.517Z,18.81
2023-10-07T15:34:26.080Z,18.82
2023-10-07T15:36:57.472Z,18.82
2023-10-07T15:39:25.305Z,18.82
2023-10-07T15:41:53.120Z,18.82
2023-10-07T15:44:20.500Z,18.81
2023-10-07T15:46:47.326Z,18.81
2023-10-07T15:49:14.713Z,18.80
2023-10-07T15:51:45.832Z,18.78
2023-10-07T15:54:16.433Z,18.77
2023-10-07T15:56:43.462Z,18.72
2023-10-07T15:59:11.600Z,18.70
2023-10-07T16:01:41.883Z,18.67
2023-10-07T16:04:09.612Z,18.64
2023-10-07T16:06:37.269Z,18.62
2023-10-07T16:09:13.964Z,18.61
2023-10-07T16:11:41.925Z,18.60
2023-10-07T16:14:09.489Z,18.58
2023-10-07T16:16:37.032Z,18.56
2023-10-07T16:19:05.201Z,18.55
2023-10-07T16:21:32.255Z,18.50
2023-10-07T16:23:58.736Z,18.49
2023-10-07T16:26:25.395Z,18.44
2023-10-07T16:28:52.013Z,18.43
2023-10-07T16:31:19.683Z,18.41
2023-10-07T16:33:46.271Z,18.41
2023-10-07T16:36:13.777Z,18.39
2023-10-07T16:38:42.234Z,18.37
2023-10-07T16:41:12.930Z,18.35
2023-10-07T16:43:39.628Z,18.33
2023-10-07T16:46:06.712Z,18.31
2023-10-07T16:48:35.412Z,18.30
2023-10-07T16:51:05.640Z,18.30
2023-10-07T16:53:35.601Z,18.29
2023-10-07T16:56:04.290Z,18.30
2023-10-07T16:58:32.126Z,18.29
2023-10-07T17:00:59.905Z,18.28
2023-10-07T17:03:28.982Z,18.28
2023-10-07T17:06:01.631Z,18.28
2023-10-07T17:08:30.662Z,18.29
2023-10-07T17:10:58.628Z,18.29
2023-10-07T17:13:25.799Z,18.30
2023-10-07T17:15:54.161Z,18.31
2023-10-07T17:18:27.414Z,18.34
2023-10-07T17:20:59.052Z,18.33
2023-10-07T17:23:29.052Z,18.32
2023-10-07T17:25:56.361Z,18.33
2023-10-07T17:28:23.704Z,18.33
2023-10-07T17:30:51.241Z,18.31
2023-10-07T17:33:21.787Z,18.28
2023-10-07T17:35:49.411Z,18.28
2023-10-07T17:38:16.280Z,18.29
2023-10-07T17:40:42.974Z,18.30
2023-10-07T17:43:12.240Z,18.29
2023-10-07T17:45:40.750Z,18.30
2023-10-07T17:48:08.027Z,18.29
2023-10-07T17:50:35.564Z,18.28
2023-10-07T17:53:04.183Z,18.27
2023-10-07T17:55:32.518Z,18.29
2023-10-07T17:57:59.727Z,18.28
2023-10-07T18:00:31.470Z,18.27
2023-10-07T18:03:00.582Z,18.25
2023-10-07T18:05:28.158Z,18.27
2023-10-07T18:07:55.394Z,18.28
2023-10-07T18:10:23.891Z,18.28
2023-10-07T18:12:52.255Z,18.29
2023-10-07T18:15:19.466Z,18.28
2023-10-07T18:17:47.469Z,18.28
2023-10-07T18:20:14.561Z,18.28
2023-10-07T18:22:43.874Z,18.29
2023-10-07T18:25:11.365Z,18.29
2023-10-07T18:27:38.779Z,18.31
2023-10-07T18:30:07.816Z,18.28
2023-10-07T18:32:35.085Z,18.27
2023-10-07T18:35:05.775Z,18.29
2023-10-07T18:37:33.717Z,18.28
2023-10-07T18:40:02.030Z,18.30
2023-10-07T18:42:36.548Z,18.30
2023-10-07T18:45:05.635Z,18.30
2023-10-07T18:47:34.630Z,18.29
2023-10-07T18:50:01.500Z,18.29
2023-10-07T18:52:29.464Z,18.28
2023-10-07T18:54:56.799Z,18.29
2023-10-07T18:57:23.328Z,18.28
2023-10-07T18:59:49.875Z,18.27
2023-10-07T19:02:16.502Z,18.27
2023-10-07T19:04:43.409Z,18.28
2023-10-07T19:07:10.580Z,18.29
2023-10-07T19:09:38.122Z,18.28
2023-10-07T19:12:06.248Z,18.27
2023-10-07T19:14:34.324Z,18.25
2023-10-07T19:17:01.620Z,18.24
2023-10-07T19:19:28.503Z,18.26
2023-10-07T19:21:55.395Z,18.26
2023-10-07T19:24:24.384Z,18.25
2023-10-07T19:26:51.760Z,18.25
2023-10-07T19:29:18.532Z,18.25
2023-10-07T19:31:45.206Z,18.25
2023-10-07T19:34:11.830Z,18.25
2023-10-07T19:36:38.709Z,18.24
2023-10-07T19:39:05.354Z,18.25
2023-10-07T19:41:31.976Z,18.25
2023-10-07T19:43:58.552Z,18.27
2023-10-07T19:46:25.352Z,18.27
2023-10-07T19:48:51.994Z,18.27
2023-10-07T19:51:18.597Z,18.26
2023-10-07T19:53:45.281Z,18.26
2023-10-07T19:56:12.247Z,18.24
2023-10-07T19:58:40.135Z,18.24
2023-10-07T20:01:08.608Z,18.24
2023-10-07T20:03:36.437Z,18.25
2023-10-07T20:06:08.029Z,18.26
2023-10-07T20:08:34.760Z,18.23
2023-10-07T20:11:01.706Z,18.23
2023-10-07T20:13:28.419Z,18.23
2023-10-07T20:15:55.012Z,18.23
2023-10-07T20:18:21.597Z,18.21
2023-10-07T20:20:59.850Z,18.24
2023-10-07T20:23:26.844Z,18.22
2023-10-07T20:26:01.757Z,18.20
2023-10-07T20:28:28.475Z,18.22
2023-10-07T20:30:56.049Z,18.21
2023-10-07T20:33:22.765Z,18.22
2023-10-07T20:35:49.581Z,18.20
2023-10-07T20:38:16.355Z,18.20
2023-10-07T20:41:01.941Z,18.20
2023-10-07T20:43:30.361Z,18.22
2023-10-07T20:46:04.307Z,18.22
2023-10-07T20:48:33.126Z,18.22
2023-10-07T20:51:02.889Z,18.22
2023-10-07T20:53:30.530Z,18.21
2023-10-07T20:55:57.053Z,18.21
2023-10-07T20:58:24.767Z,18.20
2023-10-07T21:00:51.928Z,18.19
2023-10-07T21:03:18.912Z,18.19
2023-10-07T21:05:45.708Z,18.17
2023-10-07T21:08:13.314Z,18.18
2023-10-07T21:10:42.402Z,18.18
2023-10-07T21:13:08.960Z,18.17
2023-10-07T21:15:36.698Z,18.18
2023-10-07T21:18:05.622Z,18.18
2023-10-07T21:20:35.437Z,18.17
2023-10-07T21:23:03.362Z,18.18
2023-10-07T21:25:37.972Z,18.18
2023-10-07T21:28:05.019Z,18.18
2023-10-07T21:30:31.607Z,18.17
2023-10-07T21:32:58.251Z,18.17
2023-10-07T21:35:26.554Z,18.16
2023-10-07T21:37:55.064Z,18.18
2023-10-07T21:40:21.613Z,18.16
2023-10-07T21:42:48.544Z,18.17
2023-10-07T21:45:15.220Z,18.16
2023-10-07T21:47:41.917Z,18.15
2023-10-07T21:50:09.150Z,18.15
2023-10-07T21:52:35.733Z,18.13
2023-10-07T21:55:02.520Z,18.13
2023-10-07T21:57:29.546Z,18.12
2023-10-07T21:59:57.950Z,18.11
2023-10-07T22:02:27.001Z,18.11
2023-10-07T22:04:55.014Z,18.11
2023-10-07T22:07:22.723Z,18.10
2023-10-07T22:09:49.337Z,18.09
2023-10-07T22:12:17.737Z,18.09
2023-10-07T22:14:45.247Z,18.09
2023-10-07T22:17:13.054Z,18.09
2023-10-07T22:19:40.293Z,18.09
2023-10-07T22:22:06.916Z,18.08
2023-10-07T22:24:33.476Z,18.08
2023-10-07T22:27:00.105Z,18.05
2023-10-07T22:29:26.661Z,18.05
2023-10-07T22:31:56.127Z,18.05
2023-10-07T22:34:23.457Z,18.05
2023-10-07T22:36:56.124Z,18.05
2023-10-07T22:39:32.224Z,18.05
2023-10-07T22:41:59.977Z,18.06
2023-10-07T22:44:27.021Z,18.02
2023-10-07T22:46:57.472Z,18.02
2023-10-07T22:49:27.836Z,18.01
2023-10-07T22:51:55.535Z,18.02
2023-10-07T22:54:33.290Z,18.04
2023-10-07T22:57:00.815Z,18.02
2023-10-07T22:59:27.635Z,18.02
2023-10-07T23:01:57.463Z,18.02
2023-10-07T23:04:28.033Z,18.01
2023-10-07T23:07:04.086Z,18.00
2023-10-07T23:09:38.460Z,17.99
2023-10-07T23:12:16.899Z,17.99
2023-10-07T23:14:46.250Z,17.99
2023-10-07T23:17:13.515Z,17.97
2023-10-07T23:19:41.329Z,17.97
2023-10-07T23:22:14.774Z,17.96
2023-10-07T23:24:42.358Z,17.96
2023-10-07T23:27:13.031Z,17.95
2023-10-07T23:29:50.679Z,17.95
2023-10-07T23:32:24.103Z,17.94
2023-10-07T23:35:00.852Z,17.93
2023-10-07T23:37:27.916Z,17.94
2023-10-07T23:40:00.547Z,17.93
2023-10-07T23:42:27.675Z,17.94
2023-10-07T23:44:55.871Z,17.94
2023-10-07T23:47:24.423Z,17.94
2023-10-07T23:49:55.806Z,17.94
2023-10-07T23:52:24.588Z,17.95
2023-10-07T23:54:58.496Z,17.95
2023-10-07T23:57:31.662Z,17.92
2023-10-07T23:59:59.018Z,17.90
